Time;durP1;ratioP1;P1;durP2;ratioP2;P2;SDS_P1;SDS_P2;PMS_P1;PMS_P2;Temp;Humidity;BMP_temperature;BMP_pressure;BME280_temperature;BME280_humidity;BME280_pressure;Samples;Min_cycle;Max_cycle;Signal;HPM_P1;HPM_P2
2022/09/05 00:02:01;;;;;;;;;4.00;4.00;;;;;24.32;49.29;101213.44;5018316;28;45393;-79
2022/09/05 00:04:53;;;;;;;;;3.33;3.00;;;;;24.29;48.87;101202.25;5018308;28;45287;-79
2022/09/05 00:07:56;;;;;;;;;4.67;4.67;;;;;24.25;49.00;101190.28;5027039;27;45452;-80
2022/09/05 00:10:38;;;;;;;;;2.67;2.67;;;;;24.24;49.01;101194.06;5063661;27;45351;-80
2022/09/05 00:13:11;;;;;;;;;3.33;3.33;;;;;24.22;49.13;101199.75;5017870;28;45303;-80
2022/09/05 00:16:09;;;;;;;;;4.00;4.00;;;;;24.23;49.12;101198.69;5018000;28;45552;-79
2022/09/05 00:19:06;;;;;;;;;3.00;3.00;;;;;24.19;49.75;101198.34;5017653;28;45705;-80
2022/09/05 00:21:56;;;;;;;;;2.00;2.00;;;;;24.17;49.89;101207.84;5031169;28;45324;-79
2022/09/05 00:24:30;;;;;;;;;5.00;4.67;;;;;24.14;50.28;101194.78;5021275;28;45302;-80
2022/09/05 00:27:11;;;;;;;;;5.00;5.00;;;;;24.12;50.60;101196.91;5017684;28;45322;-80
2022/09/05 00:29:57;;;;;;;;;6.00;6.00;;;;;24.06;50.23;101199.56;5017465;28;45403;-79
2022/09/05 00:32:57;;;;;;;;;3.33;3.33;;;;;24.05;50.64;101202.53;5017764;28;45261;-80
2022/09/05 00:35:27;;;;;;;;;3.00;3.00;;;;;24.00;50.51;101192.41;5017851;28;45350;-80
2022/09/05 00:37:53;;;;;;;;;4.00;4.00;;;;;23.93;50.66;101189.09;5028471;28;45348;-79
2022/09/05 00:40:36;;;;;;;;;4.00;4.00;;;;;23.90;50.65;101189.59;5020016;28;45424;-80
2022/09/05 00:43:12;;;;;;;;;5.00;3.67;;;;;23.90;51.73;101197.72;5028068;28;46330;-80
2022/09/05 00:45:48;;;;;;;;;4.33;4.33;;;;;23.85;50.88;101190.34;5018473;28;45420;-80
2022/09/05 00:50:56;;;;;;;;;4.00;4.00;;;;;23.82;51.34;101161.00;5015518;28;73853;-80
2022/09/05 00:53:35;;;;;;;;;4.00;4.00;;;;;23.77;51.59;101167.22;5016310;28;45952;-80
2022/09/05 00:56:25;;;;;;;;;4.00;3.00;;;;;23.74;51.51;101175.03;5017927;28;45293;-80
2022/09/05 00:59:22;;;;;;;;;4.67;4.67;;;;;23.67;52.10;101172.50;5017451;28;45387;-80
2022/09/05 01:02:16;;;;;;;;;5.00;5.00;;;;;23.58;51.70;101159.38;5017671;28;45606;-80
2022/09/05 01:05:02;;;;;;;;;3.00;2.00;;;;;23.50;52.50;101161.72;5017583;28;45350;-80
2022/09/05 01:07:57;;;;;;;;;4.00;4.00;;;;;23.47;52.12;101162.22;5018503;28;45473;-80
2022/09/05 01:10:30;;;;;;;;;3.67;3.67;;;;;23.38;52.38;101143.69;5030655;28;46332;-79
2022/09/05 01:13:11;;;;;;;;;3.67;3.67;;;;;23.36;52.34;101145.78;5017626;28;45280;-80
2022/09/05 01:16:04;;;;;;;;;3.67;3.67;;;;;23.32;52.84;101141.94;5017436;28;45439;-79
2022/09/05 01:18:35;;;;;;;;;3.00;3.00;;;;;23.29;52.83;101151.38;5037586;28;45355;-80
2022/09/05 01:21:18;;;;;;;;;5.00;3.33;;;;;23.27;53.05;101141.84;5037316;28;45390;-80
2022/09/05 01:24:14;;;;;;;;;4.00;4.00;;;;;23.25;52.94;101130.47;5037079;28;45330;-79
2022/09/05 01:27:18;;;;;;;;;4.00;4.00;;;;;23.21;53.63;101113.88;5037330;28;45431;-80
2022/09/05 01:29:57;;;;;;;;;5.67;5.00;;;;;23.17;53.54;101099.19;5045348;27;45505;-80
2022/09/05 01:32:52;;;;;;;;;5.00;4.00;;;;;23.21;53.03;101105.72;5037228;28;45269;-81
2022/09/05 01:35:26;;;;;;;;;5.00;4.00;;;;;23.23;53.12;101097.34;5037148;28;45490;-80
2022/09/05 01:38:10;;;;;;;;;3.67;3.67;;;;;23.21;53.41;101094.88;5035722;28;45370;-80
2022/09/05 01:41:29;;;;;;;;;4.00;4.00;;;;;23.25;53.68;101106.88;5037328;28;45348;-80
2022/09/05 01:44:00;;;;;;;;;3.33;3.33;;;;;23.22;53.32;101112.78;5057985;28;45326;-80
2022/09/05 01:46:33;;;;;;;;;7.33;3.33;;;;;23.27;53.72;101125.59;5057781;28;45729;-80
2022/09/05 01:49:10;;;;;;;;;4.00;4.00;;;;;23.25;53.83;101131.25;5053125;27;45519;-80
2022/09/05 01:51:43;;;;;;;;;3.00;2.33;;;;;23.22;53.79;101129.06;5035482;28;45391;-79
2022/09/05 01:54:49;;;;;;;;;4.00;4.00;;;;;23.23;53.78;101146.97;5036765;28;45347;-80
2022/09/05 01:57:23;;;;;;;;;5.67;5.67;;;;;23.24;53.61;101169.47;5036741;27;46642;-80
2022/09/05 02:00:00;;;;;;;;;5.00;4.33;;;;;23.24;54.23;101183.03;5036601;28;45367;-80
2022/09/05 02:02:37;;;;;;;;;3.00;3.00;;;;;23.26;54.22;101197.16;5052212;28;45352;-80
2022/09/05 02:05:11;;;;;;;;;3.67;3.67;;;;;23.21;53.93;101219.59;5036729;28;45243;-79
2022/09/05 02:07:56;;;;;;;;;4.00;4.00;;;;;23.18;54.74;101231.75;5036527;28;46325;-79
2022/09/05 02:10:49;;;;;;;;;3.00;3.00;;;;;23.15;55.13;101223.28;5036635;28;45513;-80
2022/09/05 02:13:25;;;;;;;;;4.67;4.67;;;;;23.11;55.68;101209.44;5035268;27;45330;-80
2022/09/05 02:16:34;;;;;;;;;4.00;4.00;;;;;23.13;55.61;101199.16;5035055;28;46218;-79
2022/09/05 02:19:13;;;;;;;;;4.00;4.00;;;;;23.16;55.89;101200.53;5036496;28;45677;-80
2022/09/05 02:21:39;;;;;;;;;3.33;3.33;;;;;23.24;56.15;101196.56;5036398;28;45474;-79
2022/09/05 02:24:12;;;;;;;;;4.00;4.00;;;;;23.25;55.71;101187.41;5035272;28;45430;-79
2022/09/05 02:26:43;;;;;;;;;3.67;3.67;;;;;23.28;55.94;101178.75;5036608;28;45668;-79
2022/09/05 02:29:20;;;;;;;;;5.67;5.67;;;;;23.21;55.85;101162.66;5036277;28;46146;-79
2022/09/05 02:31:49;;;;;;;;;4.00;4.00;;;;;23.20;55.44;101166.47;5036437;28;45323;-80
2022/09/05 02:34:29;;;;;;;;;4.67;4.67;;;;;23.21;55.81;101159.94;5036512;28;45327;-80
2022/09/05 02:37:19;;;;;;;;;3.33;3.33;;;;;23.22;55.70;101161.59;5036182;28;45466;-79
2022/09/05 02:39:51;;;;;;;;;4.67;4.67;;;;;23.18;55.31;101163.16;5034721;28;48401;-79
2022/09/05 02:42:41;;;;;;;;;4.67;4.67;;;;;23.16;55.62;101162.56;5034922;28;45555;-80
2022/09/05 02:45:16;;;;;;;;;4.33;4.33;;;;;23.10;55.85;101152.75;5035019;28;45297;-79
2022/09/05 02:47:46;;;;;;;;;4.33;4.33;;;;;22.97;55.81;101149.31;5052191;27;46253;-80
2022/09/05 02:50:20;;;;;;;;;5.00;4.00;;;;;22.98;55.43;101148.25;5037752;28;47048;-79
2022/09/05 02:52:48;;;;;;;;;4.33;4.33;;;;;22.98;56.09;101148.25;5038934;28;45207;-80
2022/09/05 02:55:21;;;;;;;;;4.00;4.00;;;;;22.92;56.53;101149.22;5039479;27;45403;-80
2022/09/05 02:58:08;;;;;;;;;6.00;4.00;;;;;22.85;56.29;101148.56;5037530;28;45346;-79
2022/09/05 03:00:47;;;;;;;;;5.00;5.00;;;;;22.79;56.67;101164.78;5039042;28;46375;-80
2022/09/05 03:03:33;;;;;;;;;5.00;5.00;;;;;22.73;56.59;101164.91;5038307;28;45246;-80
2022/09/05 03:06:08;;;;;;;;;4.00;4.00;;;;;22.79;56.02;101182.91;5037732;28;45341;-79
2022/09/05 03:08:42;;;;;;;;;5.00;5.00;;;;;22.79;56.46;101172.91;5037460;28;45618;-79
2022/09/05 03:11:41;;;;;;;;;4.00;4.00;;;;;22.78;56.31;101179.34;5039399;28;45464;-79
2022/09/05 03:14:40;;;;;;;;;4.33;4.33;;;;;22.73;56.39;101173.03;5037558;28;45345;-79
2022/09/05 03:17:08;;;;;;;;;4.00;4.00;;;;;22.74;56.52;101172.81;5037462;28;45450;-79
2022/09/05 03:19:51;;;;;;;;;4.00;4.00;;;;;22.74;56.99;101166.59;5037516;28;47557;-80
2022/09/05 03:22:46;;;;;;;;;4.00;4.00;;;;;22.74;56.59;101164.66;5037082;28;47609;-80
2022/09/05 03:25:45;;;;;;;;;4.00;4.00;;;;;22.73;57.33;101160.34;5039054;28;45308;-79
2022/09/05 03:28:26;;;;;;;;;3.33;3.33;;;;;22.70;56.98;101167.06;5037516;28;45404;-79
2022/09/05 03:31:13;;;;;;;;;3.00;3.00;;;;;22.63;57.41;101149.34;5039067;28;45375;-79
2022/09/05 03:34:16;;;;;;;;;4.00;4.00;;;;;22.62;56.98;101148.50;5038761;28;46600;-80
2022/09/05 03:36:44;;;;;;;;;5.00;5.00;;;;;22.57;57.21;101146.53;5038639;28;45289;-79
2022/09/05 03:39:34;;;;;;;;;4.00;4.00;;;;;22.53;57.44;101145.34;5037760;28;45370;-80
2022/09/05 03:42:38;;;;;;;;;3.00;3.00;;;;;22.50;57.98;101155.84;5037254;28;47165;-80
2022/09/05 03:45:29;;;;;;;;;2.33;2.33;;;;;22.44;58.23;101149.53;5054196;28;48238;-80
2022/09/05 03:48:13;;;;;;;;;4.00;4.00;;;;;22.40;58.35;101162.75;5037027;28;45337;-80
2022/09/05 03:51:00;;;;;;;;;5.67;5.67;;;;;22.34;58.23;101144.75;5054129;28;45384;-80
2022/09/05 03:53:53;;;;;;;;;5.00;5.00;;;;;22.35;58.16;101153.72;5038518;28;45281;-79
2022/09/05 03:56:28;;;;;;;;;4.00;3.67;;;;;22.31;58.50;101147.94;5038971;28;46252;-80
2022/09/05 03:58:59;;;;;;;;;3.33;3.33;;;;;22.27;58.82;101144.91;5038614;28;45413;-80
2022/09/05 04:01:40;;;;;;;;;5.33;5.33;;;;;22.23;58.83;101154.56;5038452;28;45354;-80
2022/09/05 04:04:32;;;;;;;;;2.00;2.00;;;;;22.19;58.67;101156.97;5038814;28;45193;-80
2022/09/05 04:07:25;;;;;;;;;3.33;3.33;;;;;22.19;58.84;101158.84;5040540;27;45538;-79
2022/09/05 04:10:02;;;;;;;;;4.33;4.33;;;;;22.15;59.48;101154.97;5038556;28;45298;-79
2022/09/05 04:12:34;;;;;;;;;5.00;5.00;;;;;22.16;59.27;101156.63;5037145;27;45287;-79
2022/09/05 04:15:16;;;;;;;;;5.33;4.67;;;;;22.13;59.01;101149.81;5038325;28;45323;-80
2022/09/05 04:17:47;;;;;;;;;4.33;4.00;;;;;22.15;59.44;101158.50;5053527;28;47594;-80
2022/09/05 04:21:00;;;;;;;;;4.00;4.00;;;;;22.13;59.62;101159.81;5053587;27;45464;-79
2022/09/05 04:23:41;;;;;;;;;6.00;4.00;;;;;22.11;59.75;101164.63;5040561;27;45389;-80
2022/09/05 04:26:41;;;;;;;;;5.67;5.00;;;;;22.06;59.71;101168.88;5036693;28;46174;-79
2022/09/05 04:29:29;;;;;;;;;3.67;3.67;;;;;21.99;59.61;101170.91;5036735;28;47660;-80
2022/09/05 04:32:01;;;;;;;;;5.00;4.33;;;;;21.94;59.59;101176.25;5038083;28;45343;-79
2022/09/05 04:34:48;;;;;;;;;6.00;5.67;;;;;21.86;59.52;101173.91;5038250;28;45299;-79
2022/09/05 04:37:44;;;;;;;;;4.67;4.67;;;;;21.79;59.98;101180.25;5037901;28;45305;-79
2022/09/05 04:40:28;;;;;;;;;4.67;4.33;;;;;21.73;60.23;101175.78;5038082;28;46047;-79
2022/09/05 04:42:58;;;;;;;;;6.00;5.33;;;;;21.65;60.37;101179.69;5036675;28;45296;-79
2022/09/05 04:45:28;;;;;;;;;5.00;5.00;;;;;21.60;60.58;101179.56;5038163;28;45546;-80
2022/09/05 04:47:59;;;;;;;;;4.33;4.33;;;;;21.57;61.07;101185.47;5053318;28;47275;-79
2022/09/05 04:50:26;;;;;;;;;4.00;4.00;;;;;21.52;60.68;101186.16;5037750;28;46287;-79
2022/09/05 04:53:25;;;;;;;;;4.33;4.33;;;;;21.46;61.62;101194.41;5037534;28;45315;-79
2022/09/05 04:55:56;;;;;;;;;5.67;5.67;;;;;21.43;61.26;101209.25;5037932;28;45409;-79
2022/09/05 04:58:28;;;;;;;;;7.00;5.67;;;;;21.41;61.46;101212.19;5036206;28;46253;-79
2022/09/05 05:01:03;;;;;;;;;5.00;5.00;;;;;21.34;61.47;101210.66;5037830;28;45380;-78
2022/09/05 05:03:31;;;;;;;;;5.00;5.00;;;;;21.30;61.94;101213.00;5037930;28;45353;-79
2022/09/05 05:06:02;;;;;;;;;3.33;3.33;;;;;21.25;61.92;101223.69;5037667;28;45374;-79
2022/09/05 05:08:40;;;;;;;;;5.00;5.00;;;;;21.18;62.13;101210.28;5037456;28;45421;-79
2022/09/05 05:11:12;;;;;;;;;6.67;6.00;;;;;21.15;62.19;101219.69;5037618;28;45493;-79
2022/09/05 05:13:53;;;;;;;;;5.00;5.00;;;;;21.09;62.49;101214.38;5037553;28;45250;-80
2022/09/05 05:16:26;;;;;;;;;6.00;6.00;;;;;21.06;62.74;101216.50;5052964;28;45361;-79
2022/09/05 05:19:00;;;;;;;;;4.33;3.67;;;;;21.08;63.12;101226.25;5037479;28;45612;-79
2022/09/05 05:21:29;;;;;;;;;5.00;5.00;;;;;21.02;62.60;101230.72;5035728;28;48305;-79
2022/09/05 05:24:17;;;;;;;;;5.67;5.67;;;;;21.03;63.21;101244.00;5032758;28;45211;-79
2022/09/05 05:27:09;;;;;;;;;6.00;6.00;;;;;21.01;63.26;101234.47;5036263;28;45346;-79
2022/09/05 05:29:34;;;;;;;;;5.00;5.00;;;;;21.00;63.66;101236.34;5036122;28;46519;-79
2022/09/05 05:32:02;;;;;;;;;6.00;6.00;;;;;21.01;63.41;101234.47;5022221;28;45566;-79
2022/09/05 05:34:35;;;;;;;;;6.00;6.00;;;;;20.97;63.69;101231.41;5037897;28;45349;-80
2022/09/05 05:37:08;;;;;;;;;5.00;5.00;;;;;21.01;63.79;101237.19;5036656;28;45368;-81
2022/09/05 05:39:40;;;;;;;;;4.00;4.00;;;;;20.99;64.36;101244.69;5042887;28;46311;-81
2022/09/05 05:42:14;;;;;;;;;6.00;6.00;;;;;20.97;64.49;101255.72;5048892;28;45626;-79
2022/09/05 05:44:48;;;;;;;;;6.67;6.67;;;;;20.98;64.81;101249.25;5045729;28;45906;-78
2022/09/05 05:47:21;;;;;;;;;7.00;7.00;;;;;20.96;65.05;101253.25;5041695;28;45357;-78
2022/09/05 05:50:03;;;;;;;;;6.67;6.67;;;;;20.99;64.33;101263.59;5038979;28;45459;-76
2022/09/05 05:52:47;;;;;;;;;7.33;7.33;;;;;21.04;64.73;101269.16;5030555;28;47261;-76
2022/09/05 05:55:34;;;;;;;;;8.33;8.00;;;;;21.00;64.76;101270.63;5031787;28;45336;-77
2022/09/05 05:58:15;;;;;;;;;8.33;8.00;;;;;21.03;64.71;101270.19;5019625;28;45271;-78
2022/09/05 06:01:05;;;;;;;;;9.00;9.00;;;;;21.01;64.99;101261.50;5021537;28;45529;-79
2022/09/05 06:03:55;;;;;;;;;8.00;7.33;;;;;20.98;65.43;101264.66;5019587;28;48118;-76
2022/09/05 06:06:52;;;;;;;;;7.33;7.33;;;;;20.99;65.23;101269.00;5016458;28;46121;-78
2022/09/05 06:09:48;;;;;;;;;8.67;7.00;;;;;20.91;65.75;101260.19;5037501;28;45210;-77
2022/09/05 06:12:35;;;;;;;;;7.67;7.67;;;;;21.01;66.02;101272.31;5043352;28;45269;-78
2022/09/05 06:15:27;;;;;;;;;7.33;5.00;;;;;21.04;65.82;101272.66;5039982;28;46436;-80
2022/09/05 06:18:11;;;;;;;;;6.00;6.00;;;;;21.09;66.15;101265.72;5039619;28;45442;-79
2022/09/05 06:21:11;;;;;;;;;5.00;5.00;;;;;21.13;65.51;101272.34;5040221;28;45322;-80
2022/09/05 06:23:58;;;;;;;;;5.67;5.67;;;;;21.24;65.81;101281.50;5039488;28;45465;-80
2022/09/05 06:26:48;;;;;;;;;6.67;6.00;;;;;21.30;65.87;101276.00;5040307;28;46690;-79
2022/09/05 06:29:32;;;;;;;;;8.67;6.67;;;;;21.38;65.90;101276.69;5040144;28;45225;-80
2022/09/05 06:32:28;;;;;;;;;7.00;5.67;;;;;21.48;65.33;101268.00;5041408;28;45398;-79
2022/09/05 06:35:12;;;;;;;;;6.67;6.00;;;;;21.56;65.16;101265.78;5040157;28;45460;-80
2022/09/05 06:38:00;;;;;;;;;6.00;6.00;;;;;21.65;65.15;101270.81;5034685;28;47308;-82
2022/09/05 06:40:52;;;;;;;;;2.33;2.33;;;;;21.71;65.36;101261.75;5019151;28;45222;-79
2022/09/05 06:43:42;;;;;;;;;5.00;5.00;;;;;21.82;65.18;101268.25;5015024;28;45359;-81
2022/09/05 06:46:32;;;;;;;;;5.00;5.00;;;;;21.90;64.78;101267.88;5015194;28;45597;-76
2022/09/05 06:49:24;;;;;;;;;5.33;4.67;;;;;21.99;64.31;101270.19;5014405;28;46530;-76
2022/09/05 06:52:22;;;;;;;;;7.67;7.67;;;;;22.09;64.37;101275.84;5014903;28;45386;-75
2022/09/05 06:55:06;;;;;;;;;5.33;5.33;;;;;22.15;64.47;101282.19;5013322;28;46253;-76
2022/09/05 06:57:40;;;;;;;;;4.00;4.00;;;;;22.22;64.18;101290.16;5015658;28;45479;-75
2022/09/05 07:00:21;;;;;;;;;4.33;4.00;;;;;22.30;64.37;101290.59;5015170;28;45427;-76
2022/09/05 07:02:56;;;;;;;;;4.67;4.67;;;;;22.39;63.90;101301.88;5015769;28;45276;-77
2022/09/05 07:05:35;;;;;;;;;5.00;5.00;;;;;22.42;64.02;101287.06;5014024;28;45297;-76
2022/09/05 07:08:10;;;;;;;;;4.00;4.00;;;;;22.51;63.59;101299.13;5013178;28;45412;-76
2022/09/05 07:10:46;;;;;;;;;4.00;4.00;;;;;22.59;63.79;101306.06;5014524;28;46339;-75
2022/09/05 07:13:28;;;;;;;;;5.67;5.67;;;;;22.67;62.96;101326.53;5013983;27;46063;-76
2022/09/05 07:16:08;;;;;;;;;5.00;5.00;;;;;22.76;63.01;101332.38;5017953;28;45431;-76
2022/09/05 07:18:52;;;;;;;;;5.33;5.33;;;;;22.81;62.86;101338.72;5035365;28;45305;-76
2022/09/05 07:21:21;;;;;;;;;6.00;6.00;;;;;22.94;62.31;101358.47;5035109;28;45409;-76
2022/09/05 07:23:54;;;;;;;;;6.33;6.33;;;;;23.00;61.92;101362.91;5033981;28;45509;-76
2022/09/05 07:26:22;;;;;;;;;5.67;5.67;;;;;23.06;61.73;101366.53;5035574;28;45241;-76
2022/09/05 07:28:54;;;;;;;;;6.00;6.00;;;;;23.12;62.12;101362.88;5035214;28;45518;-76
2022/09/05 07:31:27;;;;;;;;;6.67;6.67;;;;;23.23;61.38;101363.03;5032923;28;48293;-76
2022/09/05 07:34:13;;;;;;;;;6.00;6.00;;;;;23.33;61.31;101358.63;5035388;28;45351;-76
2022/09/05 07:36:45;;;;;;;;;8.00;6.00;;;;;23.41;61.37;101348.47;5036893;28;45306;-76
2022/09/05 07:39:16;;;;;;;;;7.00;7.00;;;;;23.51;60.98;101348.63;5036892;28;46812;-76
2022/09/05 07:41:51;;;;;;;;;6.00;5.00;;;;;23.61;61.27;101380.50;5031754;28;46338;-76
2022/09/05 07:44:28;;;;;;;;;7.33;7.00;;;;;23.70;60.91;101383.63;5031646;28;45243;-75
2022/09/05 07:47:03;;;;;;;;;6.33;6.33;;;;;23.81;60.67;101396.28;5036870;28;45379;-76
2022/09/05 07:49:33;;;;;;;;;7.00;6.00;;;;;23.87;60.73;101367.31;5036793;28;46804;-76
2022/09/05 07:52:04;;;;;;;;;7.00;7.00;;;;;23.97;60.54;101369.34;5036545;28;47690;-76
2022/09/05 07:54:39;;;;;;;;;5.67;5.67;;;;;24.12;60.22;101360.59;5038212;28;45425;-76
2022/09/05 07:57:08;;;;;;;;;7.00;7.00;;;;;24.25;59.29;101372.22;5053765;28;45353;-77
2022/09/05 07:59:37;;;;;;;;;6.00;6.00;;;;;24.26;59.12;101365.69;5036649;28;45920;-76
2022/09/05 08:02:04;;;;;;;;;6.00;6.00;;;;;24.36;58.88;101365.81;5038124;28;45273;-76
2022/09/05 08:04:35;;;;;;;;;7.00;6.00;;;;;24.43;59.22;101360.22;5036598;28;46003;-76
2022/09/05 08:07:06;;;;;;;;;7.00;6.00;;;;;24.55;58.75;101368.22;5037948;28;45357;-76
2022/09/05 08:09:40;;;;;;;;;7.67;7.00;;;;;24.57;58.19;101357.94;5037921;28;45494;-76
2022/09/05 08:12:19;;;;;;;;;4.67;4.67;;;;;24.67;57.75;101362.66;5052992;28;47514;-76
2022/09/05 08:15:07;;;;;;;;;8.67;8.67;;;;;24.71;57.40;101364.63;5036587;28;45266;-76
2022/09/05 08:17:44;;;;;;;;;15.33;14.33;;;;;24.74;57.02;101357.00;5037961;28;45385;-76
2022/09/05 08:20:34;;;;;;;;;12.00;12.00;;;;;24.86;57.34;101359.56;5037807;28;45465;-76
2022/09/05 08:23:15;;;;;;;;;26.33;25.00;;;;;24.91;57.07;101359.66;5037489;28;45214;-76
2022/09/05 08:25:56;;;;;;;;;11.33;11.33;;;;;24.94;57.26;101351.00;5037780;28;45441;-76
2022/09/05 08:28:44;;;;;;;;;6.33;6.33;;;;;25.01;56.96;101346.19;5037720;28;45344;-76
2022/09/05 08:31:25;;;;;;;;;6.00;6.00;;;;;25.08;56.37;101333.19;5037803;28;45384;-75
2022/09/05 08:33:55;;;;;;;;;6.33;6.33;;;;;25.21;55.62;101355.59;5037842;28;45523;-76
2022/09/05 08:36:42;;;;;;;;;4.33;4.33;;;;;25.28;55.61;101345.31;5035942;28;45397;-75
2022/09/05 08:39:10;;;;;;;;;5.33;5.33;;;;;25.34;55.84;101327.97;5036285;28;45405;-75
2022/09/05 08:42:04;;;;;;;;;7.00;7.00;;;;;25.41;54.88;101335.91;5037766;28;45245;-75
2022/09/05 08:44:47;;;;;;;;;6.00;6.00;;;;;25.51;54.99;101334.34;5045441;27;46413;-76
2022/09/05 08:47:26;;;;;;;;;6.00;6.00;;;;;25.60;54.46;101340.97;5035422;28;45400;-75
2022/09/05 08:50:10;;;;;;;;;5.33;5.33;;;;;25.71;53.51;101341.88;5052997;28;45257;-75
2022/09/05 08:53:10;;;;;;;;;7.33;6.00;;;;;25.80;53.46;101329.38;5035795;28;47088;-75
2022/09/05 08:55:38;;;;;;;;;6.00;6.00;;;;;25.96;53.91;101333.03;5040807;28;45442;-75
2022/09/05 08:58:03;;;;;;;;;6.33;5.00;;;;;26.03;52.65;101335.50;5037318;28;45248;-75
2022/09/05 09:00:35;;;;;;;;;7.67;7.67;;;;;26.04;51.41;101336.31;5037781;28;45318;-75
2022/09/05 09:03:11;;;;;;;;;8.50;8.50;;;;;26.13;52.06;101342.91;5037520;28;45677;-76
2022/09/05 09:05:48;;;;;;;;;6.00;6.00;;;;;26.21;51.78;101341.56;5037385;28;45615;-75
2022/09/05 09:08:28;;;;;;;;;6.67;6.67;;;;;26.25;51.54;101322.78;5037183;28;45336;-75
2022/09/05 09:10:59;;;;;;;;;6.67;6.67;;;;;26.39;51.59;101329.41;5036046;28;45370;-75
2022/09/05 09:13:51;;;;;;;;;7.67;7.67;;;;;26.45;52.12;101322.88;5037007;28;45538;-75
2022/09/05 09:16:32;;;;;;;;;7.33;7.33;;;;;26.50;51.32;101316.63;5036920;28;46179;-75
2022/09/05 09:19:20;;;;;;;;;6.00;5.00;;;;;26.62;51.52;101321.00;5035871;28;45359;-75
2022/09/05 09:21:58;;;;;;;;;6.00;6.00;;;;;26.70;49.65;101317.75;5037158;28;45332;-75
2022/09/05 09:25:19;;;;;;;;;5.33;5.00;;;;;26.84;49.25;101318.03;5037041;28;45353;-76
2022/09/05 09:28:00;;;;;;;;;7.33;7.33;;;;;26.93;49.33;101316.41;5057331;28;46390;-75
2022/09/05 09:30:28;;;;;;;;;7.00;7.00;;;;;26.97;48.33;101306.59;5036943;28;45314;-75
2022/09/05 09:33:01;;;;;;;;;8.67;7.67;;;;;27.06;48.35;101311.56;5037194;28;45287;-75
2022/09/05 09:35:51;;;;;;;;;7.33;7.00;;;;;27.19;47.79;101307.44;5037083;28;45218;-75
2022/09/05 09:38:19;;;;;;;;;6.67;6.00;;;;;27.23;48.11;101314.00;5036687;28;45858;-75
2022/09/05 09:40:49;;;;;;;;;6.00;6.00;;;;;27.25;48.06;101302.81;5035490;28;45458;-75
2022/09/05 09:43:56;;;;;;;;;5.00;5.00;;;;;27.37;48.10;101314.25;5037094;28;45329;-75
2022/09/05 09:46:50;;;;;;;;;5.00;5.00;;;;;27.45;46.88;101304.69;5057321;28;45921;-75
2022/09/05 09:49:27;;;;;;;;;5.00;5.00;;;;;27.52;45.80;101298.94;5046404;28;46640;-75
2022/09/05 09:52:15;;;;;;;;;4.00;4.00;;;;;27.58;45.52;101304.13;5052186;28;45374;-74
2022/09/05 09:54:55;;;;;;;;;4.00;4.00;;;;;27.66;45.99;101305.50;5036876;27;45389;-74
2022/09/05 09:57:30;;;;;;;;;4.33;4.33;;;;;27.71;45.85;101307.38;5035652;28;45519;-74
2022/09/05 10:00:06;;;;;;;;;5.00;5.00;;;;;27.76;45.86;101309.28;5036262;28;45352;-74
2022/09/05 10:02:55;;;;;;;;;6.00;6.00;;;;;27.82;45.92;101305.44;5052193;28;45443;-74
2022/09/05 10:05:38;;;;;;;;;6.00;6.00;;;;;27.87;46.06;101307.34;5036778;28;45400;-76
2022/09/05 10:08:22;;;;;;;;;5.67;5.67;;;;;27.94;46.01;101303.22;5036577;27;45379;-76
2022/09/05 10:11:19;;;;;;;;;6.67;6.67;;;;;27.95;45.01;101310.31;5036691;27;45492;-75
2022/09/05 10:14:02;;;;;;;;;7.33;6.67;;;;;28.03;46.00;101306.19;5022559;28;45403;-75
2022/09/05 10:16:36;;;;;;;;;9.33;7.00;;;;;28.22;44.70;101300.09;5023358;28;45325;-75
2022/09/05 10:19:23;;;;;;;;;8.33;8.00;;;;;28.34;44.81;101295.13;5036100;28;45751;-75
2022/09/05 10:22:11;;;;;;;;;10.00;9.67;;;;;28.55;44.32;101281.34;5033401;28;48650;-75
2022/09/05 10:24:42;;;;;;;;;6.00;6.00;;;;;28.78;44.75;101278.16;5022555;28;45216;-75
2022/09/05 10:27:37;;;;;;;;;7.00;7.00;;;;;28.98;44.92;101269.84;5032769;28;45443;-76
2022/09/05 10:30:07;;;;;;;;;7.00;6.67;;;;;29.22;44.85;101263.59;5024675;28;46314;-76
2022/09/05 10:32:52;;;;;;;;;8.00;8.00;;;;;29.41;44.55;101262.03;5033744;28;45485;-76
2022/09/05 10:35:34;;;;;;;;;7.00;7.00;;;;;29.61;44.59;101266.50;5035597;28;45258;-75
2022/09/05 10:38:10;;;;;;;;;6.33;6.33;;;;;29.77;43.01;101261.66;5020466;28;45341;-75
2022/09/05 10:40:38;;;;;;;;;4.67;4.67;;;;;29.96;42.17;101263.63;5040269;28;47040;-77
2022/09/05 10:43:14;;;;;;;;;4.33;4.00;;;;;30.15;38.60;101249.09;5024413;28;46665;-77
2022/09/05 10:45:55;;;;;;;;;5.67;5.33;;;;;30.33;39.73;101259.28;5035436;28;45377;-77
2022/09/05 10:48:31;;;;;;;;;4.00;4.00;;;;;30.46;39.64;101237.69;5028244;28;45800;-77
2022/09/05 10:51:14;;;;;;;;;7.00;7.00;;;;;30.62;39.57;101238.28;5027412;28;45388;-75
2022/09/05 10:53:50;;;;;;;;;7.33;6.33;;;;;30.73;39.37;101245.22;5043621;28;47266;-75
2022/09/05 10:56:27;;;;;;;;;6.00;6.00;;;;;30.85;37.31;101247.53;5031827;28;45263;-75
2022/09/05 10:59:00;;;;;;;;;6.67;5.00;;;;;31.00;38.44;101253.84;5035500;28;45293;-75
2022/09/05 11:01:34;;;;;;;;;5.00;5.00;;;;;31.20;38.55;101254.59;5051205;28;47157;-76
2022/09/05 11:04:38;;;;;;;;;4.00;4.00;;;;;31.41;37.40;101255.06;5034522;28;47220;-75
2022/09/05 11:07:17;;;;;;;;;3.67;3.67;;;;;31.52;36.16;101241.13;5035538;28;45204;-76
2022/09/05 11:10:24;;;;;;;;;5.00;5.00;;;;;31.64;36.13;101246.09;5037996;27;45427;-75
2022/09/05 11:12:57;;;;;;;;;1.33;1.33;;;;;31.78;36.01;101249.63;5038156;28;46294;-75
2022/09/05 11:15:48;;;;;;;;;4.00;3.00;;;;;31.92;34.22;101252.41;5038838;28;45265;-75
2022/09/05 11:18:37;;;;;;;;;2.67;2.67;;;;;31.90;34.26;101235.38;5017580;28;45945;-75
2022/09/05 11:21:20;;;;;;;;;2.00;2.00;;;;;31.93;34.02;101232.03;5018912;28;45332;-75
2022/09/05 11:23:53;;;;;;;;;3.00;3.00;;;;;32.05;33.90;101228.75;5034043;28;46188;-75
2022/09/05 11:26:29;;;;;;;;;3.33;3.33;;;;;32.15;33.17;101221.41;5018825;28;45455;-76
2022/09/05 11:29:04;;;;;;;;;4.00;4.00;;;;;32.19;34.08;101219.63;5018796;28;45214;-76
2022/09/05 11:31:51;;;;;;;;;2.33;2.33;;;;;32.25;32.79;101216.47;5018992;28;45267;-75
2022/09/05 11:34:46;;;;;;;;;4.33;3.33;;;;;32.32;33.76;101224.28;5017399;28;47569;-76
2022/09/05 11:37:30;;;;;;;;;2.25;2.25;;;;;32.39;32.87;101218.34;5012712;28;45907;-75
2022/09/05 11:40:01;;;;;;;;;3.33;3.33;;;;;32.52;32.48;101218.59;5017295;28;45614;-75
2022/09/05 11:42:48;;;;;;;;;2.00;2.00;;;;;32.65;32.68;101214.19;5018851;28;45340;-75
2022/09/05 11:45:19;;;;;;;;;3.00;3.00;;;;;32.72;32.73;101217.28;5018695;28;45243;-75
2022/09/05 11:48:16;;;;;;;;;3.00;3.00;;;;;32.69;31.98;101210.50;5018461;28;45389;-75
2022/09/05 11:51:07;;;;;;;;;3.67;3.67;;;;;32.79;29.90;101203.91;5016930;28;45364;-75
2022/09/05 11:54:01;;;;;;;;;2.00;2.00;;;;;32.93;30.98;101203.00;5018710;28;45393;-76
2022/09/05 11:57:04;;;;;;;;;2.67;2.67;;;;;33.02;31.15;101205.78;5033735;28;45711;-75
2022/09/05 11:59:48;;;;;;;;;3.33;3.33;;;;;33.09;30.40;101208.91;5018128;28;45230;-77
2022/09/05 12:02:20;;;;;;;;;2.33;2.33;;;;;33.17;30.65;101207.31;5022956;28;45267;-76
2022/09/05 12:04:48;;;;;;;;;3.00;3.00;;;;;33.23;30.92;101198.63;5038363;28;45323;-76
2022/09/05 12:07:41;;;;;;;;;5.00;3.67;;;;;33.32;31.36;101193.13;5036512;28;45997;-77
2022/09/05 12:10:21;;;;;;;;;3.00;3.00;;;;;33.40;31.32;101191.53;5038022;28;45710;-76
2022/09/05 12:12:58;;;;;;;;;23.33;21.33;;;;;33.43;31.32;101190.09;5037807;27;45335;-76
2022/09/05 12:15:32;;;;;;;;;9.00;9.00;;;;;33.45;31.23;101193.31;5038144;28;45322;-76
2022/09/05 12:18:13;;;;;;;;;12.67;11.67;;;;;33.46;30.98;101194.94;5028303;28;45802;-76
2022/09/05 12:20:44;;;;;;;;;12.67;12.67;;;;;33.53;30.91;101195.28;5018189;28;48632;-76
2022/09/05 12:23:12;;;;;;;;;3.67;3.67;;;;;33.56;30.77;101199.34;5033668;28;45291;-76
2022/09/05 12:25:53;;;;;;;;;3.67;3.67;;;;;33.58;30.13;101192.38;5038092;28;45475;-74
2022/09/05 12:28:31;;;;;;;;;5.00;5.00;;;;;33.63;30.35;101177.66;5053258;28;46195;-75
2022/09/05 12:31:23;;;;;;;;;5.00;5.00;;;;;33.70;30.82;101179.94;5031273;28;46077;-75
2022/09/05 12:33:50;;;;;;;;;2.67;2.67;;;;;33.63;30.15;101172.97;5036374;28;45411;-75